Latest Weather Observations for PORTABLE RFSNSW53

IDN60801

Issued at 7:12 pm EDT Thursday 21 March 2019 (issued every 10 minutes, with the page automatically refreshed every 10 minutes)

About weather observations | Map of weather stations | Latest weather observations for NSW | Other Formats
Station Details ID: 250096 Name: PORTABLE RFSNSW53 Lat: -34.44 Lon: 146.90 Height: 205.0 m
Data from the previous 72 hours. | See also: Recent months for locations in New South Wales
Date/Time
EDT
Temp
°C
App
Temp
°C
Dew
Point
°C
Rel
Hum
%
Delta-T
°C
Wind Press
QNH
hPa
Press
MSL
hPa
Rain since
9am
mm
Dir  Spd
km/h
Gust
km/h
Spd
kts
Gust
kts
21/06:50pm 32.5 30.9 10.2 25 12.9 E 9 11 5 6 - - 0.0
21/06:40pm 32.9 31.6 9.9 24 13.3 E 7 11 4 6 - - 0.0
21/06:30pm 32.9 31.9 10.2 24 13.2 ENE 6 7 3 4 - - 0.0
21/06:20pm 33.1 31.8 10.0 24 13.4 E 7 11 4 6 - - 0.0
21/06:10pm 33.1 31.9 10.2 24 13.3 ENE 7 9 4 5 - - 0.0
21/06:00pm 32.9 30.9 10.1 24 13.2 NE 11 13 6 7 - - 0.0
21/05:50pm 33.0 31.8 10.4 25 13.1 NE 7 11 4 6 - - 0.0
21/05:40pm 33.0 31.8 10.2 24 13.2 NE 7 13 4 7 - - 0.0
21/05:30pm 33.2 32.0 10.4 24 13.3 NE 7 15 4 8 - - 0.0
21/05:20pm 33.8 33.2 10.3 23 13.7 NE 4 6 2 3 - - 0.0
21/05:10pm 33.4 32.7 10.1 24 13.5 ESE 4 6 2 3 - - 0.0
21/05:00pm 33.4 32.3 10.1 24 13.5 NE 6 9 3 5 - - 0.0
21/04:50pm 33.2 32.0 10.2 24 13.3 ENE 7 11 4 6 - - 0.0
21/04:40pm 33.6 32.5 10.6 24 13.5 NNW 7 9 4 5 - - 0.0
21/04:30pm 33.8 32.9 11.2 25 13.4 NW 7 9 4 5 - - 0.0
21/04:20pm 34.5 33.4 10.5 23 14.1 NNE 7 9 4 5 - - 0.0
21/04:10pm 33.8 32.6 10.4 24 13.7 NNE 7 13 4 7 - - 0.0
21/04:00pm 33.3 32.4 10.7 25 13.2 E 6 9 3 5 - - 0.0
21/03:50pm 33.7 32.9 11.2 25 13.3 E 6 13 3 7 - - 0.0
21/03:40pm 34.3 33.8 10.6 23 13.9 SSE 4 6 2 3 - - 0.0
21/03:30pm 33.5 32.4 10.6 24 13.4 S 7 15 4 8 - - 0.0
21/03:20pm 33.8 31.5 10.5 24 13.6 WSW 13 17 7 9 - - 0.0
21/03:10pm 33.3 32.3 10.9 25 13.1 WSW 7 11 4 6 - - 0.0
21/03:00pm 34.1 32.3 10.9 24 13.7 NW 11 17 6 9 - - 0.0
21/02:50pm 34.3 32.8 10.7 23 13.9 NE 9 15 5 8 - - 0.0
21/02:40pm 33.7 32.8 11.5 26 13.2 ENE 7 9 4 5 - - 0.0
21/02:30pm 33.5 32.2 11.3 25 13.1 NE 9 13 5 7 - - 0.0
21/02:20pm 32.2 31.2 11.0 27 12.4 NNW 7 11 4 6 - - 0.0
21/02:10pm 32.5 31.3 11.5 27 12.4 N 9 13 5 7 - - 0.0
21/02:00pm 33.1 31.9 11.5 26 12.8 E 9 17 5 9 - - 0.0
21/01:50pm 32.5 31.2 12.4 29 12.0 NE 11 17 6 9 - - 0.0
21/01:40pm 32.9 32.1 12.8 29 12.1 NNE 9 15 5 8 - - 0.0
21/01:30pm 32.7 31.6 13.0 30 11.9 NE 11 19 6 10 - - 0.0
21/01:20pm 32.6 31.4 12.9 30 11.9 ENE 11 17 6 9 - - 0.0
21/01:10pm 32.3 30.6 13.5 32 11.4 NNE 15 20 8 11 - - 0.0
21/01:00pm 32.1 30.8 13.6 32 11.3 NNE 13 17 7 9 - - 0.0
21/12:50pm 31.8 30.1 13.7 33 11.0 NE 15 19 8 10 - - 0.0
21/12:40pm 31.4 30.0 14.4 35 10.4 NE 15 17 8 9 - - 0.0
21/12:30pm 31.3 30.0 14.7 36 10.2 NE 15 20 8 11 - - 0.0
21/12:20pm 30.9 29.6 14.7 37 10.0 NE 15 20 8 11 - - 0.0
21/12:10pm 30.7 29.0 14.6 37 9.9 NE 17 20 9 11 - - 0.0
21/12:00pm 30.5 28.8 14.6 38 9.8 NE 17 19 9 10 - - 0.0
21/11:50am 30.2 28.4 14.4 38 9.7 NE 17 22 9 12 - - 0.0
21/11:40am 29.7 28.0 14.6 39 9.2 NE 17 20 9 11 - - 0.0
21/11:30am 29.5 27.4 14.8 40 9.0 NE 19 22 10 12 - - 0.0
21/11:20am 28.9 27.3 14.9 42 8.6 NE 17 20 9 11 - - 0.0
21/11:10am 28.6 27.1 15.3 44 8.2 NE 17 20 9 11 - - 0.0
21/11:00am 28.3 26.1 14.8 43 8.2 NE 20 24 11 13 - - 0.0
21/10:50am 27.8 25.7 15.1 46 7.8 NE 20 22 11 12 - - 0.0
21/10:40am 27.6 25.6 14.9 45 7.7 NE 19 22 10 12 - - 0.0
21/10:30am 27.4 25.5 15.2 47 7.5 NE 19 24 10 13 - - 0.0
21/10:20am 26.9 25.0 15.2 48 7.2 NE 19 22 10 12 - - 0.0
21/10:10am 26.5 24.4 15.2 49 6.9 NE 20 22 11 12 - - 0.0
21/10:00am 26.3 24.2 15.1 50 6.8 NE 20 24 11 13 - - 0.0
21/09:50am 25.9 23.4 15.2 51 6.5 NE 22 24 12 13 - - 0.0
21/09:40am 25.9 23.8 15.2 51 6.5 NE 20 24 11 13 - - 0.0
21/09:30am 25.2 23.1 15.1 53 6.1 NE 20 24 11 13 - - 0.0
21/09:20am 24.9 22.8 15.2 54 5.9 NE 20 24 11 13 - - 0.0
21/09:10am 24.5 22.0 15.2 56 5.6 NE 22 24 12 13 - - 0.0
21/09:00am 24.2 22.1 15.2 57 5.4 NE 20 24 11 13 - - 0.0
21/08:50am 23.7 21.6 15.3 59 5.1 ENE 20 24 11 13 - - 0.0
21/08:40am 23.2 21.1 15.2 60 4.8 ENE 20 24 11 13 - - 0.0
21/08:30am 22.8 20.7 15.2 62 4.6 ENE 20 22 11 12 - - 0.0
21/08:20am 22.4 20.3 15.3 64 4.3 ENE 20 24 11 13 - - 0.0
21/08:10am 22.0 20.1 15.3 65 4.0 ENE 19 20 10 11 - - 0.0
21/08:00am 21.6 19.7 15.3 67 3.8 ENE 19 20 10 11 - - 0.0
21/07:50am 21.2 19.7 15.3 69 3.5 ENE 17 19 9 10 - - 0.0
21/07:40am 21.0 19.5 15.3 70 3.4 ENE 17 22 9 12 - - 0.0
21/07:30am 20.8 19.3 15.3 71 3.3 ENE 17 19 9 10 - - 0.0
21/07:20am 20.8 19.3 15.4 71 3.2 ENE 17 17 9 9 - - 0.0
21/07:10am 20.8 19.7 15.4 71 3.2 NE 15 17 8 9 - - 0.0
21/07:00am 20.9 19.8 15.3 70 3.3 NE 15 17 8 9 - - 0.0
21/06:50am 20.9 20.2 15.3 70 3.3 NE 13 15 7 8 - - 0.0
21/06:40am 21.0 20.3 15.4 70 3.4 ENE 13 17 7 9 - - 0.0
21/06:30am 21.1 20.0 15.4 70 3.4 ENE 15 17 8 9 - - 0.0
21/06:20am 21.2 19.7 15.4 69 3.5 ENE 17 19 9 10 - - 0.0
21/06:10am 21.2 19.7 15.4 69 3.5 ENE 17 20 9 11 - - 0.0
21/06:00am 21.3 19.8 15.4 69 3.5 ENE 17 17 9 9 - - 0.0
21/05:50am 21.4 20.3 15.4 68 3.6 ENE 15 17 8 9 - - 0.0
21/05:40am 21.5 20.4 15.4 68 3.7 ENE 15 17 8 9 - - 0.0
21/05:30am 21.5 20.0 15.4 68 3.7 ENE 17 19 9 10 - - 0.0
21/05:20am 21.6 20.5 15.4 68 3.7 ENE 15 17 8 9 - - 0.0
21/05:10am 21.7 21.0 15.4 67 3.8 ENE 13 17 7 9 - - 0.0
21/05:00am 21.7 21.3 15.3 67 3.8 NE 11 13 6 7 - - 0.0
21/04:50am 21.9 21.1 15.2 65 4.0 NE 13 17 7 9 - - 0.0
21/04:40am 22.0 20.9 15.2 65 4.1 ENE 15 19 8 10 - - 0.0
21/04:30am 22.1 21.3 15.1 64 4.2 ENE 13 17 7 9 - - 0.0
21/04:20am 22.2 21.0 15.0 63 4.3 ENE 15 17 8 9 - - 0.0
21/04:10am 22.3 21.0 14.8 62 4.5 ENE 15 15 8 8 - - 0.0
21/04:00am 22.4 21.1 14.8 62 4.5 ENE 15 17 8 9 - - 0.0
21/03:50am 22.6 21.3 14.7 61 4.7 ENE 15 19 8 10 - - 0.0
21/03:40am 22.8 21.0 14.5 59 4.9 ENE 17 17 9 9 - - 0.0
21/03:30am 23.0 20.8 14.3 58 5.2 ENE 19 20 10 11 - - 0.0
21/03:20am 23.1 21.2 14.1 57 5.3 ENE 17 20 9 11 - - 0.0
21/03:10am 23.2 21.3 14.1 56 5.4 ENE 17 20 9 11 - - 0.0
21/03:00am 23.3 21.3 14.0 56 5.5 ENE 17 19 9 10 - - 0.0
21/02:50am 23.5 21.5 13.9 55 5.7 ENE 17 17 9 9 - - 0.0
21/02:40am 23.8 22.2 13.8 53 5.9 ENE 15 17 8 9 - - 0.0
21/02:30am 24.0 22.3 13.7 52 6.1 ENE 15 17 8 9 - - 0.0
21/02:20am 24.0 22.7 13.6 52 6.1 ENE 13 15 7 8 - - 0.0
21/02:10am 24.0 22.6 13.3 51 6.3 ENE 13 15 7 8 - - 0.0
21/02:00am 23.5 22.2 12.5 50 6.3 ENE 11 15 6 8 - - 0.0
21/01:50am 21.1 20.3 11.0 52 5.6 ENE 6 7 3 4 - - 0.0
21/01:40am 19.7 18.6 6.9 43 6.5 NW 2 4 1 2 - - 0.0
21/01:30am 19.7 18.6 6.7 42 6.6 SSE 2 2 1 1 - - 0.0
21/01:20am 19.6 18.4 6.5 42 6.6 SE 2 4 1 2 - - 0.0
21/01:10am 19.0 17.7 5.9 42 6.5 NE 2 4 1 2 - - 0.0
21/01:00am 18.6 16.9 6.0 43 6.3 NW 4 4 2 2 - - 0.0
21/12:50am 18.8 17.1 5.9 43 6.4 NW 4 4 2 2 - - 0.0
21/12:40am 19.3 17.7 6.2 42 6.6 NNE 4 6 2 3 - - 0.0
21/12:30am 19.8 17.7 6.0 40 6.9 NNE 6 6 3 3 - - 0.0
21/12:20am 20.1 18.5 6.3 40 7.0 NNW 4 6 2 3 - - 0.0
21/12:10am 20.2 18.6 6.4 40 7.0 WNW 4 4 2 2 - - 0.0
21/12:00am 20.4 18.8 6.4 40 7.1 WSW 4 4 2 2 - - 0.0
 
Date/Time
EDT
Temp
°C
App
Temp
°C
Dew
Point
°C
Rel
Hum
%
Delta-T
°C
Wind Press
QNH
hPa
Press
MSL
hPa
Rain since
9am
mm
Dir  Spd
km/h
Gust
km/h
Spd
kts
Gust
kts
20/11:50pm 20.7 19.5 6.3 39 7.3 W 2 4 1 2 - - 0.0
20/11:40pm 20.9 19.8 6.8 40 7.2 WSW 2 2 1 1 - - 0.0
20/11:30pm 21.3 20.3 7.2 40 7.3 NNW 2 2 1 1 - - 0.0
20/11:20pm 21.5 20.5 7.4 40 7.3 N 2 2 1 1 - - 0.0
20/11:10pm 21.7 20.7 7.3 39 7.5 N 2 2 1 1 - - 0.0
20/11:00pm 21.7 20.7 7.2 39 7.5 NNE 2 2 1 1 - - 0.0
20/10:50pm 21.9 20.8 7.0 38 7.7 NNW 2 2 1 1 - - 0.0
20/10:40pm 22.5 20.7 7.2 37 8.0 NE 6 6 3 3 - - 0.0
20/10:30pm 23.2 21.3 6.8 34 8.5 SE 6 6 3 3 - - 0.0
20/10:20pm 23.5 21.7 7.2 35 8.6 SSE 6 6 3 3 - - 0.0
20/10:10pm 23.0 21.2 7.0 35 8.3 S 6 6 3 3 - - 0.0
20/10:00pm 23.2 21.5 7.6 36 8.2 SE 6 7 3 4 - - 0.0
20/09:50pm 25.2 23.3 7.4 32 9.5 SE 7 7 4 4 - - 0.0
20/09:40pm 24.4 22.4 7.1 33 9.1 SE 7 9 4 5 - - 0.0
20/09:30pm 23.7 21.9 7.8 36 8.5 SE 7 7 4 4 - - 0.0
20/09:20pm 24.8 23.1 7.7 33 9.1 SE 6 7 3 4 - - 0.0
20/09:10pm 26.5 24.5 7.1 29 10.3 SE 7 9 4 5 - - 0.0
20/09:00pm 26.1 24.2 7.5 30 10.0 SE 7 9 4 5 - - 0.0
20/08:50pm 26.2 24.4 8.1 31 9.8 SE 7 7 4 4 - - 0.0
20/08:40pm 27.4 25.6 7.8 29 10.6 SE 7 9 4 5 - - 0.0
20/08:30pm 27.6 25.8 7.9 28 10.7 SE 7 9 4 5 - - 0.0
20/08:20pm 27.4 25.6 7.9 29 10.6 SE 7 7 4 4 - - 0.0
20/08:10pm 27.7 26.0 8.2 29 10.7 SE 7 7 4 4 - - 0.0
20/08:00pm 28.3 26.7 8.2 28 11.0 SE 6 7 3 4 - - 0.0
20/07:50pm 28.3 26.6 8.2 28 11.0 SE 7 7 4 4 - - 0.0
20/07:40pm 28.6 26.9 8.3 28 11.2 SSE 7 7 4 4 - - 0.0
20/07:30pm 29.4 27.9 8.5 27 11.6 S 6 7 3 4 - - 0.0
20/07:20pm 30.4 29.0 8.7 26 12.1 S 6 6 3 3 - - 0.0
20/07:10pm 30.8 29.4 8.8 25 12.4 S 6 7 3 4 - - 0.0
20/07:00pm 31.5 29.6 8.9 24 12.8 SSW 9 13 5 7 - - 0.0
20/06:50pm 32.0 29.6 8.8 23 13.1 SSE 11 15 6 8 - - 0.0
20/06:40pm 32.4 30.8 8.8 23 13.4 SSE 7 9 4 5 - - 0.0
20/06:30pm 32.5 30.5 8.8 23 13.4 SE 9 13 5 7 - - 0.0
20/06:20pm 32.7 31.2 9.1 23 13.4 S 7 11 4 6 - - 0.0
20/06:10pm 32.7 31.2 9.0 23 13.5 SE 7 11 4 6 - - 0.0
20/06:00pm 32.9 30.6 9.0 23 13.6 S 11 15 6 8 - - 0.0
20/05:50pm 33.1 30.4 9.1 22 13.7 SSW 13 17 7 9 - - 0.0
20/05:40pm 34.2 32.7 9.3 21 14.3 W 7 9 4 5 - - 0.0
20/05:30pm 34.5 33.4 8.5 20 14.8 NW 4 11 2 6 - - 0.0
20/05:20pm 33.7 32.5 9.4 22 14.0 E 6 9 3 5 - - 0.0
20/05:10pm 33.5 32.4 9.8 23 13.7 ESE 6 7 3 4 - - 0.0
20/05:00pm 33.4 32.1 9.8 23 13.6 SSE 7 11 4 6 - - 0.0
20/04:50pm 33.6 31.9 9.8 23 13.8 S 9 11 5 6 - - 0.0
20/04:40pm 33.9 32.2 9.7 22 14.0 S 9 15 5 8 - - 0.0
20/04:30pm 34.2 33.4 9.6 22 14.2 SSE 4 6 2 3 - - 0.0
20/04:20pm 33.7 32.3 9.6 22 13.9 SSE 7 11 4 6 - - 0.0
20/04:10pm 33.5 32.3 9.7 23 13.7 NW 6 9 3 5 - - 0.0
20/04:00pm 33.2 32.4 10.9 25 13.1 SSW 6 15 3 8 - - 0.0
20/03:50pm 32.6 31.5 10.0 25 13.0 SSE 6 11 3 6 - - 0.0
20/03:40pm 32.1 30.8 10.1 25 12.7 SSE 7 11 4 6 - - 0.0
20/03:30pm 32.1 31.0 10.6 26 12.5 SSW 7 15 4 8 - - 0.0
20/03:20pm 33.2 31.7 10.4 24 13.3 S 9 13 5 7 - - 0.0
20/03:10pm 33.4 31.0 9.9 23 13.6 SW 13 19 7 10 - - 0.0
20/03:00pm 33.4 32.1 9.9 23 13.6 NW 7 13 4 7 - - 0.0
20/02:50pm 32.9 31.7 10.3 25 13.1 WSW 7 13 4 7 - - 0.0
20/02:40pm 32.5 30.5 10.3 25 12.9 E 11 17 6 9 - - 0.0
20/02:30pm 32.5 31.0 10.7 26 12.7 SE 9 15 5 8 - - 0.0
20/02:20pm 32.9 32.0 11.2 26 12.8 S 7 13 4 7 - - 0.0
20/02:10pm 32.6 30.9 11.2 27 12.6 SSW 11 15 6 8 - - 0.0
20/02:00pm 32.8 31.4 11.0 26 12.8 W 9 13 5 7 - - 0.0
20/01:50pm 32.6 31.5 10.5 25 12.9 WNW 7 11 4 6 - - 0.0
20/01:40pm 32.2 30.8 10.9 27 12.4 NNW 9 17 5 9 - - 0.0
20/01:30pm 32.1 31.1 11.0 27 12.3 WNW 7 15 4 8 - - 0.0
20/01:20pm 32.0 30.2 12.0 29 11.9 NW 13 17 7 9 - - 0.0
20/01:10pm 32.1 31.4 13.1 31 11.5 NW 9 22 5 12 - - 0.0
20/01:00pm 31.9 32.0 12.8 31 11.5 S 4 7 2 4 - - 0.0
20/12:50pm 31.3 31.0 12.8 32 11.1 S 6 9 3 5 - - 0.0
20/12:40pm 31.2 31.0 13.6 34 10.7 ENE 7 11 4 6 - - 0.0
20/12:30pm 30.9 30.7 13.7 35 10.4 NW 7 11 4 6 - - 0.0
20/12:20pm 30.5 30.3 13.6 35 10.2 WNW 7 9 4 5 - - 0.0
20/12:10pm 30.3 29.8 13.7 36 10.0 N 9 11 5 6 - - 0.0
20/12:00pm 30.0 30.2 14.1 37 9.7 NNE 6 7 3 4 - - 0.0
20/11:50am 29.5 29.6 14.0 38 9.4 N 6 11 3 6 - - 0.0
20/11:40am 29.1 28.3 14.1 40 9.1 NW 11 15 6 8 - - 0.0
20/11:30am 29.1 27.8 13.7 38 9.3 NE 13 19 7 10 - - 0.0
20/11:20am 28.5 27.3 14.1 41 8.7 NE 13 13 7 7 - - 0.0
20/11:10am 28.4 27.2 13.9 41 8.7 NE 13 17 7 9 - - 0.0
20/11:00am 27.9 26.0 14.2 43 8.3 ENE 17 19 9 10 - - 0.0
20/10:50am 27.7 26.2 14.2 43 8.1 NE 15 19 8 10 - - 0.0
20/10:40am 27.4 25.6 14.5 45 7.8 NE 17 19 9 10 - - 0.0
20/10:30am 27.2 25.3 14.3 45 7.8 NE 17 19 9 10 - - 0.0
20/10:20am 26.6 24.7 14.2 46 7.5 NE 17 19 9 10 - - 0.0
20/10:10am 26.0 23.8 14.4 48 7.0 NE 19 20 10 11 - - 0.0
20/10:00am 25.8 24.1 14.6 50 6.8 NE 17 20 9 11 - - 0.0
20/09:50am 25.4 23.6 14.5 51 6.6 NE 17 20 9 11 - - 0.0
20/09:40am 25.3 23.2 14.6 51 6.4 NE 19 20 10 11 - - 0.0
20/09:30am 24.7 22.5 14.5 53 6.1 NE 19 22 10 12 - - 0.0
20/09:20am 24.2 21.9 14.6 55 5.8 ENE 20 24 11 13 - - 0.0
20/09:10am 23.8 21.7 14.7 56 5.5 ENE 19 24 10 13 - - 0.0
20/09:00am 23.4 21.0 14.5 57 5.3 ENE 20 24 11 13 - - 0.0
20/08:50am 23.0 20.7 14.6 59 5.0 ENE 20 22 11 12 - - 0.0
20/08:40am 22.6 20.5 14.6 60 4.8 ENE 19 24 10 13 - - 0.0
20/08:30am 22.1 20.3 14.5 62 4.5 ENE 17 19 9 10 - - 0.0
20/08:20am 21.6 19.5 14.6 64 4.1 ENE 19 22 10 12 - - 0.0
20/08:10am 21.3 19.5 14.5 65 4.0 ENE 17 20 9 11 - - 0.0
20/08:00am 20.9 19.5 14.4 66 3.8 ENE 15 19 8 10 - - 0.0
20/07:50am 20.7 19.6 14.4 67 3.7 ENE 13 17 7 9 - - 0.0
20/07:40am 20.4 19.3 14.3 68 3.6 NE 13 19 7 10 - - 0.0
20/07:30am 20.1 19.0 14.2 69 3.4 NE 13 15 7 8 - - 0.0
20/07:20am 20.0 18.9 14.3 69 3.3 NE 13 15 7 8 - - 0.0
20/07:10am 20.1 19.4 14.3 69 3.4 NE 11 13 6 7 - - 0.0
20/07:00am 20.1 19.0 14.3 69 3.4 NE 13 15 7 8 - - 0.0
20/06:50am 20.1 19.0 14.4 69 3.3 ENE 13 15 7 8 - - 0.0
20/06:40am 20.3 19.2 14.4 69 3.5 ENE 13 15 7 8 - - 0.0
20/06:30am 20.3 19.2 14.4 69 3.5 ENE 13 15 7 8 - - 0.0
20/06:20am 20.4 18.9 14.3 68 3.6 ENE 15 17 8 9 - - 0.0
20/06:10am 20.5 19.1 14.4 68 3.6 ENE 15 19 8 10 - - 0.0
20/06:00am 20.5 19.1 14.4 68 3.6 ENE 15 15 8 8 - - 0.0
20/05:50am 20.6 19.2 14.5 68 3.6 ENE 15 17 8 9 - - 0.0
20/05:40am 20.7 19.7 14.5 67 3.7 ENE 13 17 7 9 - - 0.0
20/05:30am 20.9 19.5 14.5 67 3.8 ENE 15 19 8 10 - - 0.0
20/05:20am 21.1 19.7 14.5 66 3.9 ENE 15 19 8 10 - - 0.0
20/05:10am 21.1 19.7 14.6 66 3.8 ENE 15 17 8 9 - - 0.0
20/05:00am 21.2 19.8 14.5 65 4.0 ENE 15 17 8 9 - - 0.0
20/04:50am 21.3 19.5 14.5 65 4.0 ENE 17 17 9 9 - - 0.0
20/04:40am 21.3 19.9 14.5 65 4.0 ENE 15 17 8 9 - - 0.0
20/04:30am 21.4 20.0 14.5 64 4.1 ENE 15 17 8 9 - - 0.0
20/04:20am 21.5 20.4 14.4 64 4.2 ENE 13 17 7 9 - - 0.0
20/04:10am 21.6 20.2 14.4 63 4.3 ENE 15 17 8 9 - - 0.0
20/04:00am 21.9 20.5 14.4 62 4.4 ENE 15 17 8 9 - - 0.0
20/03:50am 22.1 20.3 14.4 61 4.6 ENE 17 19 9 10 - - 0.0
20/03:40am 22.3 20.5 14.4 61 4.7 ENE 17 20 9 11 - - 0.0
20/03:30am 22.3 20.8 14.2 60 4.8 ENE 15 17 8 9 - - 0.0
20/03:20am 22.5 20.6 14.2 59 4.9 ENE 17 20 9 11 - - 0.0
20/03:10am 22.7 20.8 14.2 58 5.0 ENE 17 20 9 11 - - 0.0
20/03:00am 22.7 20.8 14.1 58 5.1 ENE 17 19 9 10 - - 0.0
20/02:50am 22.6 21.0 14.0 58 5.1 ENE 15 17 8 9 - - 0.0
20/02:40am 23.0 21.0 14.0 57 5.3 ENE 17 20 9 11 - - 0.0
20/02:30am 23.1 21.5 13.9 56 5.4 ENE 15 19 8 10 - - 0.0
20/02:20am 23.0 21.8 13.9 56 5.4 ENE 13 15 7 8 - - 0.0
20/02:10am 23.2 21.9 13.8 55 5.5 ENE 13 15 7 8 - - 0.0
20/02:00am 23.3 22.0 13.8 55 5.6 ENE 13 15 7 8 - - 0.0
20/01:50am 23.5 22.2 13.8 54 5.7 ENE 13 17 7 9 - - 0.0
20/01:40am 23.5 22.3 13.9 55 5.7 ENE 13 15 7 8 - - 0.0
20/01:30am 23.8 22.5 13.8 53 5.9 ENE 13 15 7 8 - - 0.0
20/01:20am 24.2 22.6 13.9 52 6.1 ENE 15 19 8 10 - - 0.0
20/01:10am 24.1 22.5 13.8 52 6.1 ENE 15 19 8 10 - - 0.0
20/01:00am 24.1 22.9 14.0 53 6.0 ENE 13 15 7 8 - - 0.0
20/12:50am 24.4 22.8 14.0 52 6.2 ENE 15 15 8 8 - - 0.0
20/12:40am 24.7 23.5 14.1 51 6.3 ENE 13 17 7 9 - - 0.0
20/12:30am 25.1 23.9 14.0 50 6.6 ENE 13 17 7 9 - - 0.0
20/12:20am 25.6 24.4 13.9 48 7.0 ENE 13 17 7 9 - - 0.0
20/12:10am 26.0 24.7 13.6 46 7.4 ENE 13 15 7 8 - - 0.0
20/12:00am 26.3 24.9 13.4 45 7.6 ENE 13 19 7 10 - - 0.0
 
Date/Time
EDT
Temp
°C
App
Temp
°C
Dew
Point
°C
Rel
Hum
%
Delta-T
°C
Wind Press
QNH
hPa
Press
MSL
hPa
Rain since
9am
mm
Dir  Spd
km/h
Gust
km/h
Spd
kts
Gust
kts
19/11:50pm 26.4 25.4 12.4 41 8.2 E 9 11 5 6 - - 0.0
19/11:40pm 26.0 24.8 11.6 40 8.3 E 9 11 5 6 - - 0.0
19/11:30pm 24.3 22.7 10.1 40 7.9 ESE 9 11 5 6 - - 0.0
19/11:20pm 22.3 21.4 10.7 47 6.4 E 6 7 3 4 - - 0.0
19/11:10pm 22.2 21.9 11.6 51 6.0 SE 4 4 2 2 - - 0.0
19/11:00pm 22.2 21.5 10.1 46 6.6 SE 4 4 2 2 - - 0.0
19/10:50pm 22.1 22.1 11.1 49 6.1 ESE 2 4 1 2 - - 0.0
19/10:40pm 21.6 22.0 12.4 55 5.2 ENE 2 2 1 1 - - 0.0
19/10:30pm 21.7 22.0 10.8 50 6.0 CALM 0 0 0 0 - - 0.0
19/10:20pm 22.0 21.8 10.4 47 6.4 SSE 2 2 1 1 - - 0.0
19/10:10pm 22.4 22.2 10.4 46 6.6 SSE 2 2 1 1 - - 0.0
19/10:00pm 23.2 23.3 11.5 47 6.6 SSE 2 2 1 1 - - 0.0
19/09:50pm 23.6 23.7 11.4 46 6.9 SE 2 4 1 2 - - 0.0
19/09:40pm 23.9 24.0 11.4 45 7.1 SE 2 4 1 2 - - 0.0
19/09:30pm 24.2 24.3 11.5 45 7.2 SSE 2 2 1 1 - - 0.0
19/09:20pm 24.5 24.6 11.4 43 7.4 SSE 2 4 1 2 - - 0.0
19/09:10pm 24.8 25.1 12.2 45 7.3 SSE 2 2 1 1 - - 0.0
19/09:00pm 25.2 25.3 11.5 42 7.8 SSE 2 2 1 1 - - 0.0
19/08:50pm 25.8 25.4 11.2 40 8.3 SSE 4 4 2 2 - - 0.0
19/08:40pm 25.9 25.5 11.1 39 8.4 SSE 4 4 2 2 - - 0.0
19/08:30pm 25.9 25.4 10.9 39 8.5 SSW 4 6 2 3 - - 0.0
19/08:20pm 26.4 25.6 11.0 38 8.8 SSW 6 7 3 4 - - 0.0
19/08:10pm 26.8 26.1 11.3 38 8.9 SSW 6 6 3 3 - - 0.0
19/08:00pm 27.4 26.7 11.5 37 9.2 S 6 6 3 3 - - 0.0
19/07:50pm 28.0 27.5 11.9 36 9.4 S 6 6 3 3 - - 0.0
19/07:40pm 28.7 28.1 11.6 34 9.9 SSW 6 7 3 4 - - 0.0
19/07:30pm 29.2 28.5 11.9 34 10.1 SSW 7 7 4 4 - - 0.0
19/07:20pm 29.6 28.8 11.8 33 10.4 SSW 7 11 4 6 - - 0.0
19/07:00pm 30.5 29.1 12.2 32 10.8 SSW 11 13 6 7 - - 0.0
19/06:50pm 30.8 28.6 12.2 32 11.0 SW 15 17 8 9 - - 0.0
19/06:40pm 31.2 30.2 12.2 31 11.3 SSW 9 13 5 7 - - 0.0
19/06:30pm 31.2 29.8 12.3 31 11.2 S 11 17 6 9 - - 0.0
19/06:20pm 31.3 29.5 12.0 30 11.4 S 13 17 7 9 - - 0.0
19/06:10pm 31.5 29.3 12.2 30 11.5 SSE 15 19 8 10 - - 0.0
19/06:00pm 31.9 30.6 12.4 30 11.6 SSW 11 17 6 9 - - 0.0
19/05:50pm 31.9 31.0 12.5 30 11.6 SSW 9 13 5 7 - - 0.0
19/05:40pm 32.1 30.4 12.4 30 11.8 SW 13 17 7 9 - - 0.0
19/05:30pm 32.2 30.9 12.6 30 11.8 S 11 15 6 8 - - 0.0
19/05:20pm 32.0 30.8 12.8 31 11.5 SSW 11 15 6 8 - - 0.0
19/05:10pm 31.7 30.4 12.6 31 11.4 S 11 13 6 7 - - 0.0
19/05:00pm 31.5 29.9 12.7 31 11.3 SSE 13 19 7 10 - - 0.0
19/04:50pm 31.8 30.5 12.4 30 11.6 SSE 11 15 6 8 - - 0.0
19/04:40pm 31.8 30.7 13.0 31 11.3 S 11 17 6 9 - - 0.0
19/04:30pm 31.4 29.8 12.8 32 11.1 WSW 13 15 7 8 - - 0.0
19/04:20pm 30.6 29.1 13.0 34 10.5 SW 13 19 7 10 - - 0.0
19/04:10pm 31.8 30.9 13.6 33 11.1 SSW 11 20 6 11 - - 0.0
19/04:00pm 31.7 30.5 12.9 31 11.3 S 11 13 6 7 - - 0.0
19/03:50pm 30.9 29.4 13.2 34 10.7 SSE 13 17 7 9 - - 0.0
19/03:40pm 30.8 29.2 13.9 35 10.3 S 15 19 8 10 - - 0.0
19/03:30pm 31.9 31.4 13.7 33 11.1 W 9 15 5 8 - - 0.0
19/03:20pm 31.7 31.3 13.1 32 11.2 SSE 7 11 4 6 - - 0.0
19/03:10pm 30.5 29.7 13.0 34 10.5 SSW 9 17 5 9 - - 0.0
19/03:00pm 31.3 30.1 13.9 34 10.6 SSW 13 17 7 9 - - 0.0
19/02:50pm 32.2 31.8 13.0 31 11.6 SW 7 11 4 6 - - 0.0
19/02:40pm 31.3 30.6 13.1 33 11.0 SSW 9 15 5 8 - - 0.0
19/02:30pm 30.3 29.6 13.3 35 10.2 S 9 17 5 9 - - 0.0
19/02:20pm 30.5 30.5 13.7 35 10.2 SE 6 13 3 7 - - 0.0
19/02:10pm 30.6 29.7 13.6 35 10.3 S 11 17 6 9 - - 0.0
19/02:00pm 30.7 30.6 13.8 35 10.3 S 7 13 4 7 - - 0.0
19/01:50pm 30.4 29.5 13.6 35 10.2 SSW 11 15 6 8 - - 0.0
19/01:40pm 30.4 29.1 13.6 35 10.2 SSE 13 17 7 9 - - 0.0
19/01:30pm 30.5 30.6 13.8 36 10.1 SE 6 13 3 7 - - 0.0
19/01:20pm 29.8 29.2 13.5 36 9.8 SSE 9 15 5 8 - - 0.0
19/01:10pm 30.1 29.7 14.0 37 9.8 SSW 9 17 5 9 - - 0.0
19/01:00pm 29.8 28.9 13.6 37 9.8 SSW 11 19 6 10 - - 0.0
19/12:50pm 29.6 29.1 13.8 38 9.5 SSE 9 17 5 9 - - 0.0
19/12:40pm 29.5 29.4 13.9 38 9.4 SW 7 11 4 6 - - 0.0
19/12:30pm 29.5 29.6 13.8 38 9.5 SSE 6 9 3 5 - - 0.0
19/12:20pm 29.4 28.9 13.7 38 9.5 SSE 9 13 5 7 - - 0.0
19/12:10pm 29.4 29.5 13.8 38 9.4 S 6 6 3 3 - - 0.0
19/12:00pm 28.7 28.8 14.4 41 8.7 S 7 9 4 5 - - 0.0
19/11:50am 28.8 29.0 14.2 40 8.9 NW 6 11 3 6 - - 0.0
19/11:40am 27.9 28.4 13.9 42 8.4 SW 4 7 2 4 - - 0.0
19/11:30am 27.8 27.8 14.2 43 8.2 ESE 7 13 4 7 - - 0.0
19/11:20am 27.6 27.2 14.1 43 8.1 E 9 15 5 8 - - 0.0
19/11:10am 27.5 27.4 13.9 43 8.2 E 7 11 4 6 - - 0.0
19/11:00am 27.0 26.5 13.8 44 7.9 E 9 13 5 7 - - 0.0
19/10:50am 26.7 25.9 13.9 45 7.7 E 11 15 6 8 - - 0.0
19/10:40am 26.7 26.0 14.3 46 7.5 E 11 13 6 7 - - 0.0
19/10:30am 26.4 25.6 14.1 46 7.4 ENE 11 13 6 7 - - 0.0
19/10:20am 25.9 25.2 14.4 49 6.9 ENE 11 15 6 8 - - 0.0
19/10:10am 25.7 25.5 14.6 50 6.7 ENE 9 13 5 7 - - 0.0
19/10:00am 25.6 25.9 15.0 52 6.4 ESE 7 11 4 6 - - 0.0
19/09:50am 24.9 25.8 15.0 54 6.0 SSW 4 6 2 3 - - 0.0
19/09:40am 24.4 25.3 15.1 56 5.6 SSW 4 6 2 3 - - 0.0
19/09:30am 23.7 24.9 15.0 58 5.2 SE 2 6 1 3 - - 0.0
19/09:20am 23.1 24.0 15.1 60 4.8 SSE 4 6 2 3 - - 0.0
19/09:10am 22.8 23.7 15.1 62 4.6 S 4 4 2 2 - - 0.0
19/09:00am 22.4 23.3 15.1 63 4.4 S 4 6 2 3 - - 0.0
19/08:50am 21.9 22.8 15.1 65 4.1 SSE 4 4 2 2 - - 0.0
19/08:40am 21.3 22.1 14.8 66 3.9 SSE 4 4 2 2 - - 0.0
19/08:30am 20.7 21.5 14.8 69 3.5 S 4 6 2 3 - - 0.0
19/08:20am 20.3 21.1 14.7 70 3.3 SSW 4 6 2 3 - - 0.0
19/08:10am 19.6 20.3 14.4 72 3.0 WSW 4 4 2 2 - - 0.0
19/08:00am 18.7 19.3 14.3 75 2.6 WSW 4 6 2 3 - - 0.0
19/07:50am 18.3 18.7 13.8 75 2.6 ENE 4 7 2 4 - - 0.0
19/07:40am 17.8 17.9 13.9 78 2.2 NE 6 7 3 4 - - 0.0
19/07:30am 17.7 17.9 14.1 79 2.1 NE 6 6 3 3 - - 0.0
19/07:20am 17.9 18.2 14.5 80 2.0 NE 6 7 3 4 - - 0.0
19/07:10am 18.0 18.3 14.4 79 2.1 NE 6 6 3 3 - - 0.0
19/07:00am 17.6 17.9 14.4 81 1.9 NE 6 7 3 4 - - 0.0
19/06:50am 17.7 17.7 14.3 80 2.0 NE 7 7 4 4 - - 0.0
19/06:40am 18.1 18.1 14.3 78 2.2 NE 7 9 4 5 - - 0.0
19/06:30am 18.6 19.3 14.4 76 2.4 NE 4 6 2 3 - - 0.0
19/06:20am 18.6 19.3 14.6 77 2.3 N 4 4 2 2 - - 0.0
19/06:10am 18.4 19.5 14.5 78 2.3 NNW 2 4 1 2 - - 0.0
19/06:00am 18.2 18.8 14.3 78 2.3 WNW 4 4 2 2 - - 0.0
19/05:50am 18.3 19.3 14.4 78 2.3 NNW 2 4 1 2 - - 0.0
19/05:40am 18.4 18.6 14.3 77 2.4 NNW 6 7 3 4 - - 0.0
19/05:30am 18.4 18.7 14.5 78 2.3 NNW 6 6 3 3 - - 0.0
19/05:20am 18.4 19.1 14.6 78 2.2 NNE 4 6 2 3 - - 0.0
19/05:10am 18.6 18.9 14.5 77 2.4 N 6 6 3 3 - - 0.0
19/05:00am 18.9 19.2 14.4 75 2.6 NNE 6 6 3 3 - - 0.0
19/04:50am 18.9 19.7 14.8 77 2.4 N 4 4 2 2 - - 0.0
19/04:40am 19.2 20.0 14.8 75 2.6 NNE 4 4 2 2 - - 0.0
19/04:30am 19.5 20.3 14.9 75 2.7 NE 4 6 2 3 - - 0.0
19/04:20am 19.5 20.0 15.0 75 2.7 ENE 6 7 3 4 - - 0.0
19/04:10am 19.4 19.9 15.1 76 2.5 ENE 6 7 3 4 - - 0.0
19/04:00am 19.4 19.9 15.1 76 2.5 ENE 6 6 3 3 - - 0.0
19/03:50am 19.3 19.8 15.1 76 2.5 ENE 6 7 3 4 - - 0.0
19/03:40am 19.4 20.3 15.1 76 2.5 ENE 4 6 2 3 - - 0.0
19/03:30am 19.5 20.3 14.9 75 2.7 ENE 4 6 2 3 - - 0.0
19/03:20am 19.5 20.7 15.0 75 2.7 N 2 4 1 2 - - 0.0
19/03:10am 19.7 20.9 15.0 74 2.8 NW 2 4 1 2 - - 0.0
19/03:00am 19.7 21.0 15.1 75 2.7 ENE 2 4 1 2 - - 0.0
19/02:50am 19.6 20.3 14.4 72 3.0 E 4 6 2 3 - - 0.0
19/02:40am 18.9 20.0 14.5 75 2.6 ESE 2 4 1 2 - - 0.0
19/02:30am 19.0 19.8 13.7 71 3.1 SE 2 2 1 1 - - 0.0
19/02:20am 19.4 20.2 13.7 69 3.3 SSE 2 4 1 2 - - 0.0
19/02:10am 19.3 20.2 14.0 71 3.1 SSE 2 2 1 1 - - 0.0
19/02:00am 19.5 20.0 14.0 70 3.2 SSE 4 4 2 2 - - 0.0
19/01:50am 19.4 19.8 13.8 70 3.2 SSE 4 4 2 2 - - 0.0
19/01:40am 19.0 19.3 13.3 69 3.3 S 4 6 2 3 - - 0.0
19/01:30am 19.3 19.5 13.1 67 3.5 SSE 4 4 2 2 - - 0.0
19/01:20am 19.4 20.4 14.2 72 3.0 SE 2 4 1 2 - - 0.0
19/01:10am 19.4 20.2 13.8 70 3.2 E 2 4 1 2 - - 0.0
19/01:00am 19.3 20.1 13.7 70 3.2 WNW 2 4 1 2 - - 0.0
19/12:50am 19.9 20.2 13.4 66 3.7 WNW 4 6 2 3 - - 0.0
19/12:40am 19.6 19.8 14.1 70 3.2 NW 6 6 3 3 - - 0.0
19/12:30am 19.9 20.6 13.5 66 3.7 N 2 6 1 3 - - 0.0
19/12:20am 20.2 20.7 14.1 68 3.6 NNE 4 4 2 2 - - 0.0
19/12:10am 20.1 20.6 14.0 68 3.6 NNW 4 6 2 3 - - 0.0
19/12:00am 20.8 21.9 14.6 67 3.7 NNE 2 2 1 1 - - 0.0
 
Date/Time
EDT
Temp
°C
App
Temp
°C
Dew
Point
°C
Rel
Hum
%
Delta-T
°C
Wind Press
QNH
hPa
Press
MSL
hPa
Rain since
9am
mm
Dir  Spd
km/h
Gust
km/h
Spd
kts
Gust
kts
18/11:50pm 20.7 21.5 14.7 68 3.5 E 4 6 2 3 - - 0.0
18/11:40pm 20.9 21.6 14.4 66 3.8 NE 4 4 2 2 - - 0.0
18/11:30pm 21.1 21.4 14.6 66 3.8 N 6 6 3 3 - - 0.0
18/11:20pm 21.1 21.4 14.6 66 3.8 N 6 6 3 3 - - 0.0
18/11:10pm 21.4 21.7 14.6 65 4.0 NNE 6 6 3 3 - - 0.0
18/11:00pm 22.0 22.7 14.4 62 4.5 NNE 4 6 2 3 - - 0.0
18/10:50pm 22.2 22.9 14.5 61 4.6 NE 4 6 2 3 - - 0.0
18/10:40pm 22.2 22.8 14.3 61 4.7 NNE 4 6 2 3 - - 0.0
18/10:30pm 22.5 22.9 14.8 61 4.6 NNE 6 7 3 4 - - 0.0
18/10:20pm 22.7 22.5 14.6 60 4.8 NE 9 9 5 5 - - 0.0
18/10:10pm 22.8 23.0 14.6 60 4.9 ENE 7 9 4 5 - - 0.0
18/10:00pm 22.9 23.1 14.6 59 4.9 ENE 7 9 4 5 - - 0.0
18/09:50pm 23.0 22.4 14.6 59 5.0 ENE 11 13 6 7 - - 0.0
18/09:40pm 23.3 22.7 14.7 58 5.1 ENE 11 13 6 7 - - 0.0
18/09:30pm 23.6 23.0 14.7 57 5.3 ENE 11 11 6 6 - - 0.0
18/09:20pm 23.9 23.3 14.7 56 5.5 E 11 13 6 7 - - 0.0
18/09:10pm 24.1 23.2 14.9 56 5.5 ENE 13 17 7 9 - - 0.0
18/09:00pm 24.4 23.2 15.0 55 5.7 E 15 20 8 11 - - 0.0
18/08:50pm 24.9 22.8 15.2 54 5.9 E 20 22 11 12 - - 0.0
18/08:40pm 25.3 23.1 15.0 53 6.2 ESE 20 22 11 12 - - 0.0
18/08:30pm 25.6 24.0 14.0 48 6.9 SE 15 20 8 11 - - 0.0
18/08:20pm 25.6 24.7 11.3 40 8.2 SSE 7 9 4 5 - - 0.0
18/08:10pm 26.1 25.2 11.3 39 8.5 SE 7 9 4 5 - - 0.0
18/08:00pm 26.5 25.4 10.8 37 8.9 SE 7 9 4 5 - - 0.0
18/07:50pm 26.6 25.1 10.6 36 9.1 SE 9 9 5 5 - - 0.0
18/07:40pm 27.1 25.9 10.3 35 9.5 SSE 7 9 4 5 - - 0.0
18/07:30pm 27.9 26.6 10.0 32 10.1 S 7 11 4 6 - - 0.0
18/07:20pm 28.6 26.5 9.9 31 10.6 S 11 15 6 8 - - 0.0

Other formats

Comma delimited format used in spreadsheet applications
http://www.bom.gov.au/fwo/IDN60801/IDN60801.99792.axf

JavaScript Object Notation format (JSON) in row-major order
http://www.bom.gov.au/fwo/IDN60801/IDN60801.99792.json

Data quality

Most of these data are generated automatically and are frequently updated. Quality checks on data are not normally performed. It is possible for incorrect values to appear. Refer to information at About Latest Weather Observations and please check the disclaimer before using these data.